createdAt,value
2017-09-29T00:01:05.463Z,87.20
2017-09-29T00:03:32.996Z,87.30
2017-09-29T00:06:00.505Z,87.40
2017-09-29T00:08:28.079Z,87.30
2017-09-29T00:10:55.579Z,87.60
2017-09-29T00:13:23.110Z,87.70
2017-09-29T00:15:51.382Z,88.20
2017-09-29T00:18:18.882Z,88.20
2017-09-29T00:20:46.408Z,88.50
2017-09-29T00:23:13.912Z,88.80
2017-09-29T00:25:41.481Z,89.20
2017-09-29T00:28:08.993Z,90.00
2017-09-29T00:30:37.700Z,90.20
2017-09-29T00:33:05.253Z,90.20
2017-09-29T00:35:32.749Z,90.30
2017-09-29T00:38:01.056Z,90.30
2017-09-29T00:40:28.563Z,90.30
2017-09-29T00:42:56.082Z,90.30
2017-09-29T00:45:24.353Z,90.40
2017-09-29T00:47:52.642Z,90.50
2017-09-29T00:50:20.137Z,90.50
2017-09-29T00:52:48.601Z,90.60
2017-09-29T00:55:16.098Z,90.60
2017-09-29T00:57:43.603Z,90.80
2017-09-29T01:00:11.912Z,91.00
2017-09-29T01:02:39.432Z,91.30
2017-09-29T01:05:06.977Z,90.90
2017-09-29T01:07:34.467Z,90.90
2017-09-29T01:10:02.158Z,90.90
2017-09-29T01:12:30.468Z,90.90
2017-09-29T01:14:57.965Z,91.00
2017-09-29T01:17:25.493Z,91.00
2017-09-29T01:19:53.752Z,90.80
2017-09-29T01:22:21.494Z,90.80
2017-09-29T01:24:48.997Z,91.00
2017-09-29T01:27:16.493Z,90.90
2017-09-29T01:29:44.802Z,91.10
2017-09-29T01:32:12.297Z,90.90
2017-09-29T01:34:40.593Z,91.00
2017-09-29T01:37:08.101Z,91.00
2017-09-29T01:39:36.393Z,91.10
2017-09-29T01:42:03.886Z,91.00
2017-09-29T01:44:31.417Z,91.20
2017-09-29T01:46:58.908Z,91.10
2017-09-29T01:49:26.605Z,91.00
2017-09-29T01:51:54.708Z,91.00
2017-09-29T01:54:22.987Z,90.70
2017-09-29T01:56:50.518Z,90.70
2017-09-29T01:59:18.784Z,90.90
2017-09-29T02:01:47.178Z,91.00
2017-09-29T02:04:14.692Z,91.00
2017-09-29T02:06:42.225Z,91.00
2017-09-29T02:09:10.493Z,91.10
2017-09-29T02:11:38.945Z,91.10
2017-09-29T02:14:07.210Z,91.10
2017-09-29T02:16:35.477Z,91.10
2017-09-29T02:19:03.788Z,91.00
2017-09-29T02:21:31.299Z,90.90
2017-09-29T02:23:58.833Z,90.80
2017-09-29T02:26:26.337Z,90.90
2017-09-29T02:28:53.867Z,91.00
2017-09-29T02:31:21.370Z,90.90
2017-09-29T02:33:48.909Z,90.90
2017-09-29T02:36:17.172Z,90.80
2017-09-29T02:38:44.868Z,90.80
2017-09-29T02:41:12.370Z,90.80
2017-09-29T02:43:39.869Z,90.80
2017-09-29T02:46:07.487Z,90.80
2017-09-29T02:48:34.982Z,90.80
2017-09-29T02:51:03.282Z,90.60
2017-09-29T02:53:31.588Z,90.70
2017-09-29T02:55:59.105Z,90.70
2017-09-29T02:58:28.393Z,90.80
2017-09-29T03:00:57.649Z,91.00
2017-09-29T03:03:27.524Z,91.00
2017-09-29T03:05:57.737Z,91.30
2017-09-29T03:08:25.280Z,91.20
2017-09-29T03:10:53.544Z,91.40
2017-09-29T03:13:21.836Z,91.00
2017-09-29T03:15:49.334Z,91.30
2017-09-29T03:18:17.638Z,91.00
2017-09-29T03:20:45.141Z,91.00
2017-09-29T03:23:13.445Z,90.90
2017-09-29T03:25:40.949Z,90.90
2017-09-29T03:28:09.635Z,90.80
2017-09-29T03:30:37.130Z,90.80
2017-09-29T03:33:04.622Z,90.90
2017-09-29T03:35:32.165Z,91.00
2017-09-29T03:37:59.663Z,90.90
2017-09-29T03:40:27.193Z,90.80
2017-09-29T03:42:54.700Z,91.00
2017-09-29T03:45:22.259Z,91.40
2017-09-29T03:47:49.754Z,91.10
2017-09-29T03:50:19.911Z,91.30
2017-09-29T03:52:47.842Z,91.30
2017-09-29T03:55:16.403Z,91.10
2017-09-29T03:57:45.061Z,91.30
2017-09-29T04:00:13.342Z,91.50
2017-09-29T04:02:40.869Z,91.40
2017-09-29T04:05:09.126Z,91.40
2017-09-29T04:07:37.431Z,91.50
2017-09-29T04:10:04.930Z,91.50
2017-09-29T04:12:33.239Z,91.80
2017-09-29T04:15:00.737Z,91.70
2017-09-29T04:17:29.006Z,91.70
2017-09-29T04:19:57.324Z,91.90
2017-09-29T04:22:24.825Z,91.80
2017-09-29T04:24:52.377Z,92.00
2017-09-29T04:27:19.901Z,92.20
2017-09-29T04:29:48.194Z,92.30
2017-09-29T04:32:15.689Z,92.30
2017-09-29T04:34:43.244Z,92.30
2017-09-29T04:37:11.513Z,92.20
2017-09-29T04:39:40.002Z,92.10
2017-09-29T04:42:07.515Z,92.50
2017-09-29T04:44:35.799Z,92.10
2017-09-29T04:47:03.338Z,92.10
2017-09-29T04:49:30.845Z,92.00
2017-09-29T04:51:58.534Z,92.00
2017-09-29T04:54:26.095Z,91.90
2017-09-29T04:56:53.593Z,91.90
2017-09-29T04:59:21.198Z,92.00
2017-09-29T05:01:48.695Z,92.10
2017-09-29T05:04:17.006Z,91.90
2017-09-29T05:06:44.547Z,91.90
2017-09-29T05:09:12.398Z,91.80
2017-09-29T05:11:39.897Z,91.80
2017-09-29T05:14:07.420Z,91.80
2017-09-29T05:16:34.953Z,91.70
2017-09-29T05:19:02.459Z,91.80
2017-09-29T05:21:30.003Z,92.00
2017-09-29T05:23:57.494Z,92.20
2017-09-29T05:26:25.028Z,92.30
2017-09-29T05:28:52.555Z,92.30
2017-09-29T05:31:20.130Z,92.40
2017-09-29T05:33:47.634Z,92.50
2017-09-29T05:36:15.462Z,92.50
2017-09-29T05:38:42.976Z,92.60
2017-09-29T05:41:11.271Z,92.40
2017-09-29T05:43:38.804Z,92.30
2017-09-29T05:46:06.307Z,92.30
2017-09-29T05:48:33.855Z,92.20
2017-09-29T05:51:01.365Z,92.20
2017-09-29T05:53:28.929Z,92.30
2017-09-29T05:55:56.432Z,92.30
2017-09-29T05:58:24.293Z,92.40
2017-09-29T06:00:51.801Z,92.40
2017-09-29T06:03:20.082Z,92.00
2017-09-29T06:05:47.637Z,92.00
2017-09-29T06:08:15.130Z,91.90
2017-09-29T06:10:42.657Z,91.80
2017-09-29T06:13:10.160Z,91.60
2017-09-29T06:15:37.701Z,91.20
2017-09-29T06:18:05.206Z,91.10
2017-09-29T06:20:32.738Z,90.90
2017-09-29T06:23:00.229Z,90.80
2017-09-29T06:25:28.488Z,90.40
2017-09-29T06:27:56.014Z,90.40
2017-09-29T06:30:24.276Z,90.10
2017-09-29T06:32:51.801Z,89.50
2017-09-29T06:35:19.301Z,89.40
2017-09-29T06:37:46.825Z,88.40
2017-09-29T06:40:15.081Z,86.90
2017-09-29T06:42:43.386Z,86.20
2017-09-29T06:45:10.884Z,86.10
2017-09-29T06:47:39.322Z,84.40
2017-09-29T06:50:06.830Z,84.40
2017-09-29T06:52:34.321Z,84.20
2017-09-29T06:55:01.841Z,83.60
2017-09-29T06:57:29.337Z,83.60
2017-09-29T06:59:56.894Z,82.90
2017-09-29T07:02:24.390Z,81.30
2017-09-29T07:04:51.917Z,76.50
2017-09-29T07:07:19.404Z,72.00
2017-09-29T07:09:47.696Z,63.60
2017-09-29T07:12:15.197Z,63.50
2017-09-29T07:14:43.652Z,62.60
2017-09-29T07:17:11.159Z,62.50
2017-09-29T07:19:38.812Z,62.60
2017-09-29T07:22:06.339Z,63.50
2017-09-29T07:24:36.058Z,63.50
2017-09-29T07:27:05.625Z,62.80
2017-09-29T07:29:35.340Z,62.60
2017-09-29T07:32:05.049Z,62.80
2017-09-29T07:34:32.543Z,63.90
2017-09-29T07:37:00.073Z,64.50
2017-09-29T07:39:28.341Z,66.00
2017-09-29T07:41:56.021Z,66.80
2017-09-29T07:44:23.521Z,68.30
2017-09-29T07:46:51.793Z,69.50
2017-09-29T07:49:19.315Z,69.50
2017-09-29T07:51:47.585Z,71.80
2017-09-29T07:54:15.872Z,71.50
2017-09-29T07:56:43.368Z,71.40
2017-09-29T07:59:10.895Z,70.70
2017-09-29T08:01:38.397Z,68.10
2017-09-29T08:04:06.109Z,62.40
2017-09-29T08:06:33.592Z,57.30
2017-09-29T08:09:01.112Z,54.80
2017-09-29T08:11:29.396Z,50.20
2017-09-29T08:13:56.888Z,50.20
2017-09-29T08:16:24.421Z,50.60
2017-09-29T08:18:51.921Z,48.70
2017-09-29T08:21:19.786Z,49.40
2017-09-29T08:23:47.285Z,50.50
2017-09-29T08:26:14.790Z,48.90
2017-09-29T08:28:42.308Z,47.60
2017-09-29T08:31:09.797Z,46.40
2017-09-29T08:33:37.325Z,44.10
2017-09-29T08:36:04.813Z,43.90
2017-09-29T08:38:33.214Z,48.20
2017-09-29T08:41:00.717Z,48.10
2017-09-29T08:43:28.990Z,47.30
2017-09-29T08:45:57.285Z,46.70
2017-09-29T08:48:24.773Z,46.70
2017-09-29T08:50:52.368Z,49.70
2017-09-29T08:53:19.857Z,53.30
2017-09-29T08:55:47.621Z,56.80
2017-09-29T08:58:15.122Z,57.30
2017-09-29T09:00:42.641Z,58.20
2017-09-29T09:03:10.145Z,55.80
2017-09-29T09:05:37.665Z,54.40
2017-09-29T09:08:05.157Z,53.30
2017-09-29T09:10:33.476Z,51.80
2017-09-29T09:13:01.055Z,51.80
2017-09-29T09:15:29.459Z,48.10
2017-09-29T09:17:57.712Z,47.30
2017-09-29T09:20:25.226Z,47.30
2017-09-29T09:22:52.761Z,46.00
2017-09-29T09:25:21.020Z,43.60
2017-09-29T09:27:49.325Z,43.20
2017-09-29T09:30:16.813Z,43.20
2017-09-29T09:32:44.345Z,42.30
2017-09-29T09:35:11.843Z,42.40
2017-09-29T09:37:39.980Z,42.50
2017-09-29T09:40:08.233Z,41.00
2017-09-29T09:42:35.896Z,41.00
2017-09-29T09:45:03.389Z,42.00
2017-09-29T09:47:30.901Z,42.80
2017-09-29T09:49:58.426Z,42.10
2017-09-29T09:52:25.933Z,41.70
2017-09-29T09:54:53.457Z,40.80
2017-09-29T09:57:20.946Z,38.80
2017-09-29T09:59:49.357Z,40.30
2017-09-29T10:02:16.859Z,40.20
2017-09-29T10:04:44.377Z,40.60
2017-09-29T10:07:11.892Z,38.80
2017-09-29T10:09:39.384Z,39.50
2017-09-29T10:12:07.685Z,40.00
2017-09-29T10:14:35.177Z,40.00
2017-09-29T10:17:02.702Z,41.60
2017-09-29T10:19:30.226Z,43.40
2017-09-29T10:21:57.852Z,43.80
2017-09-29T10:24:25.349Z,42.70
2017-09-29T10:26:52.849Z,42.00
2017-09-29T10:29:20.374Z,44.40
2017-09-29T10:31:47.871Z,45.20
2017-09-29T10:34:15.424Z,43.90
2017-09-29T10:36:42.916Z,43.50
2017-09-29T10:39:11.068Z,43.50
2017-09-29T10:41:38.557Z,45.00
2017-09-29T10:44:06.102Z,44.50
2017-09-29T10:46:33.605Z,45.00
2017-09-29T10:49:01.137Z,43.50
2017-09-29T10:51:28.634Z,44.00
2017-09-29T10:53:56.161Z,43.70
2017-09-29T10:56:23.657Z,46.40
2017-09-29T10:58:51.920Z,50.50
2017-09-29T11:01:20.219Z,52.80
2017-09-29T11:03:47.706Z,52.70
2017-09-29T11:06:15.241Z,53.50
2017-09-29T11:08:42.737Z,54.70
2017-09-29T11:11:10.277Z,55.50
2017-09-29T11:13:37.769Z,55.40
2017-09-29T11:16:05.313Z,56.10
2017-09-29T11:18:32.810Z,54.60
2017-09-29T11:21:00.334Z,55.50
2017-09-29T11:23:27.842Z,55.40
2017-09-29T11:25:55.357Z,56.00
2017-09-29T11:28:23.668Z,55.90
2017-09-29T11:30:51.929Z,56.20
2017-09-29T11:33:19.446Z,56.20
2017-09-29T11:35:46.938Z,55.80
2017-09-29T11:38:14.465Z,55.80
2017-09-29T11:40:42.737Z,55.80
2017-09-29T11:43:10.441Z,55.80
2017-09-29T11:45:37.934Z,54.60
2017-09-29T11:48:05.436Z,54.60
2017-09-29T11:50:32.973Z,55.60
2017-09-29T11:53:00.457Z,55.50
2017-09-29T11:55:28.750Z,55.60
2017-09-29T11:57:56.257Z,55.60
2017-09-29T12:00:24.550Z,55.90
2017-09-29T12:02:52.038Z,55.80
2017-09-29T12:05:19.845Z,55.90
2017-09-29T12:07:47.344Z,55.90
2017-09-29T12:10:14.833Z,56.00
2017-09-29T12:12:42.353Z,56.40
2017-09-29T12:15:09.845Z,56.50
2017-09-29T12:17:37.378Z,56.90
2017-09-29T12:20:04.873Z,56.50
2017-09-29T12:22:33.163Z,56.50
2017-09-29T12:25:00.664Z,56.50
2017-09-29T12:27:28.211Z,56.40
2017-09-29T12:29:55.705Z,56.00
2017-09-29T12:32:23.238Z,55.80
2017-09-29T12:34:50.730Z,56.00
2017-09-29T12:37:18.626Z,55.40
2017-09-29T12:39:46.138Z,56.40
2017-09-29T12:42:14.405Z,56.10
2017-09-29T12:44:42.702Z,56.00
2017-09-29T12:47:10.800Z,56.00
2017-09-29T12:49:38.333Z,55.80
2017-09-29T12:52:05.828Z,55.00
2017-09-29T12:54:34.195Z,55.20
2017-09-29T12:57:01.685Z,55.10
2017-09-29T12:59:29.947Z,55.70
2017-09-29T13:01:57.430Z,56.50
2017-09-29T13:04:25.700Z,55.70
2017-09-29T13:06:53.988Z,56.50
2017-09-29T13:09:21.482Z,56.40
2017-09-29T13:11:49.025Z,56.10
2017-09-29T13:14:17.290Z,55.40
2017-09-29T13:16:44.825Z,55.30
2017-09-29T13:19:12.316Z,55.90
2017-09-29T13:21:39.845Z,56.40
2017-09-29T13:24:07.335Z,56.10
2017-09-29T13:26:35.646Z,56.30
2017-09-29T13:29:03.911Z,56.50
2017-09-29T13:31:31.438Z,56.50
2017-09-29T13:33:59.744Z,55.30
2017-09-29T13:36:27.238Z,55.30
2017-09-29T13:38:55.520Z,55.10
2017-09-29T13:41:23.042Z,55.20
2017-09-29T13:43:50.573Z,54.30
2017-09-29T13:46:18.335Z,54.50
2017-09-29T13:48:45.853Z,54.80
2017-09-29T13:51:13.338Z,55.40
2017-09-29T13:53:42.034Z,55.20
2017-09-29T13:56:09.532Z,55.10
2017-09-29T13:58:37.020Z,55.30
2017-09-29T14:01:04.550Z,55.60
2017-09-29T14:03:32.816Z,55.60
2017-09-29T14:06:00.342Z,55.50
2017-09-29T14:08:28.649Z,55.00
2017-09-29T14:10:56.213Z,55.00
2017-09-29T14:13:23.708Z,55.20
2017-09-29T14:15:51.534Z,55.70
2017-09-29T14:18:19.797Z,56.70
2017-09-29T14:20:48.053Z,57.10
2017-09-29T14:23:15.610Z,57.00
2017-09-29T14:25:43.873Z,57.50
2017-09-29T14:28:12.168Z,57.30
2017-09-29T14:30:39.668Z,57.30
2017-09-29T14:33:07.966Z,57.70
2017-09-29T14:35:35.470Z,57.70
2017-09-29T14:38:03.771Z,58.80
2017-09-29T14:40:31.264Z,58.40
2017-09-29T14:42:58.956Z,58.80
2017-09-29T14:45:26.452Z,59.70
2017-09-29T14:47:53.941Z,59.40
2017-09-29T14:50:22.304Z,58.80
2017-09-29T14:52:49.828Z,58.40
2017-09-29T14:55:18.121Z,57.30
2017-09-29T14:57:46.395Z,56.90
2017-09-29T15:00:14.108Z,57.50
2017-09-29T15:02:41.633Z,56.80
2017-09-29T15:05:09.889Z,56.20
2017-09-29T15:07:37.409Z,56.20
2017-09-29T15:10:04.906Z,56.20
2017-09-29T15:12:32.428Z,56.70
2017-09-29T15:15:00.681Z,56.70
2017-09-29T15:17:28.205Z,56.70
2017-09-29T15:19:55.703Z,56.50
2017-09-29T15:22:23.225Z,56.50
2017-09-29T15:24:51.489Z,57.00
2017-09-29T15:27:19.737Z,57.30
2017-09-29T15:29:47.265Z,56.60
2017-09-29T15:32:14.795Z,57.00
2017-09-29T15:34:42.320Z,57.40
2017-09-29T15:37:09.808Z,56.80
2017-09-29T15:39:38.109Z,57.10
2017-09-29T15:42:05.608Z,56.70
2017-09-29T15:44:33.137Z,57.10
2017-09-29T15:47:00.629Z,56.40
2017-09-29T15:49:28.165Z,56.60
2017-09-29T15:51:55.668Z,57.30
2017-09-29T15:54:23.306Z,57.50
2017-09-29T15:56:50.820Z,57.80
2017-09-29T15:59:18.314Z,58.40
2017-09-29T16:01:45.840Z,58.70
2017-09-29T16:04:13.329Z,59.00
2017-09-29T16:06:41.627Z,59.70
2017-09-29T16:09:09.118Z,59.60
2017-09-29T16:11:37.413Z,60.10
2017-09-29T16:14:04.910Z,60.10
2017-09-29T16:16:32.569Z,60.20
2017-09-29T16:19:00.069Z,60.50
2017-09-29T16:21:27.569Z,60.70
2017-09-29T16:23:55.854Z,61.20
2017-09-29T16:26:23.353Z,61.20
2017-09-29T16:28:50.890Z,61.30
2017-09-29T16:31:18.381Z,62.00
2017-09-29T16:33:46.265Z,61.10
2017-09-29T16:36:13.771Z,61.30
2017-09-29T16:38:41.261Z,61.50
2017-09-29T16:41:08.792Z,60.90
2017-09-29T16:43:36.306Z,60.90
2017-09-29T16:46:03.829Z,61.30
2017-09-29T16:48:32.097Z,62.30
2017-09-29T16:51:00.388Z,62.60
2017-09-29T16:53:27.887Z,62.50
2017-09-29T16:55:56.206Z,64.20
2017-09-29T16:58:23.709Z,64.10
2017-09-29T17:00:52.122Z,65.20
2017-09-29T17:03:19.633Z,65.10
2017-09-29T17:05:47.145Z,65.50
2017-09-29T17:08:14.673Z,65.90
2017-09-29T17:10:42.173Z,66.20
2017-09-29T17:13:09.713Z,66.70
2017-09-29T17:15:37.208Z,67.10
2017-09-29T17:18:04.734Z,67.30
2017-09-29T17:20:32.300Z,67.30
2017-09-29T17:22:59.845Z,67.20
2017-09-29T17:25:27.366Z,67.10
2017-09-29T17:27:55.316Z,67.10
2017-09-29T17:30:22.839Z,67.30
2017-09-29T17:32:50.338Z,67.80
2017-09-29T17:35:17.865Z,67.80
2017-09-29T17:37:45.361Z,68.00
2017-09-29T17:40:20.188Z,68.00
2017-09-29T17:42:47.698Z,68.30
2017-09-29T17:45:15.237Z,68.10
2017-09-29T17:47:43.517Z,68.50
2017-09-29T17:50:11.185Z,68.50
2017-09-29T17:52:38.737Z,68.50
2017-09-29T17:55:06.215Z,68.50
2017-09-29T17:57:33.741Z,68.60
2017-09-29T18:00:01.229Z,68.50
2017-09-29T18:02:29.513Z,68.60
2017-09-29T18:04:57.009Z,68.50
2017-09-29T18:07:24.829Z,68.60
2017-09-29T18:09:53.206Z,68.70
2017-09-29T18:12:20.717Z,68.90
2017-09-29T18:14:48.246Z,68.50
2017-09-29T18:17:15.743Z,68.70
2017-09-29T18:19:43.275Z,69.20
2017-09-29T18:22:10.765Z,69.30
2017-09-29T18:24:39.226Z,70.00
2017-09-29T18:27:06.738Z,69.90
2017-09-29T18:29:34.229Z,69.80
2017-09-29T18:32:02.545Z,70.30
2017-09-29T18:34:30.051Z,70.20
2017-09-29T18:36:57.605Z,70.20
2017-09-29T18:39:25.151Z,70.30
2017-09-29T18:41:55.650Z,70.30
2017-09-29T18:44:29.709Z,70.50
2017-09-29T18:46:59.957Z,70.70
2017-09-29T18:49:27.505Z,70.90
2017-09-29T18:51:55.153Z,70.70
2017-09-29T18:54:22.712Z,71.10
2017-09-29T18:56:50.205Z,71.10
2017-09-29T18:59:17.731Z,71.30
2017-09-29T19:01:45.236Z,71.30
2017-09-29T19:04:12.773Z,71.50
2017-09-29T19:06:40.299Z,71.60
2017-09-29T19:09:08.714Z,71.40
2017-09-29T19:11:36.216Z,71.30
2017-09-29T19:14:04.474Z,71.30
2017-09-29T19:16:32.778Z,71.50
2017-09-29T19:19:00.269Z,71.50
2017-09-29T19:21:28.570Z,71.10
2017-09-29T19:23:56.070Z,71.10
2017-09-29T19:26:24.378Z,70.80
2017-09-29T19:28:51.869Z,70.70
2017-09-29T19:31:19.405Z,70.80
2017-09-29T19:33:46.902Z,70.60
2017-09-29T19:36:14.783Z,70.70
2017-09-29T19:38:42.293Z,70.50
2017-09-29T19:41:09.790Z,70.70
2017-09-29T19:43:37.338Z,70.30
2017-09-29T19:46:04.841Z,70.70
2017-09-29T19:48:32.378Z,70.90
2017-09-29T19:50:59.875Z,71.20
2017-09-29T19:53:28.205Z,71.70
2017-09-29T19:55:55.736Z,71.20
2017-09-29T19:58:23.258Z,71.10
2017-09-29T20:00:50.745Z,71.20
2017-09-29T20:03:18.246Z,71.10
2017-09-29T20:05:45.778Z,71.00
2017-09-29T20:08:13.303Z,70.80
2017-09-29T20:10:41.605Z,71.20
2017-09-29T20:13:09.105Z,71.20
2017-09-29T20:15:36.667Z,71.30
2017-09-29T20:18:04.257Z,71.70
2017-09-29T20:20:31.906Z,72.00
2017-09-29T20:22:59.393Z,72.00
2017-09-29T20:25:26.889Z,72.20
2017-09-29T20:27:54.421Z,72.00
2017-09-29T20:30:21.928Z,71.90
2017-09-29T20:32:49.486Z,71.80
2017-09-29T20:35:16.986Z,71.80
2017-09-29T20:37:44.517Z,72.20
2017-09-29T20:40:12.966Z,72.50
2017-09-29T20:42:40.707Z,72.70
2017-09-29T20:45:08.213Z,73.30
2017-09-29T20:47:36.468Z,73.70
2017-09-29T20:50:04.766Z,74.10
2017-09-29T20:52:32.253Z,74.10
2017-09-29T20:55:00.595Z,74.50
2017-09-29T20:57:28.089Z,74.80
2017-09-29T20:59:56.537Z,75.00
2017-09-29T21:02:24.030Z,75.00
2017-09-29T21:04:51.523Z,74.80
2017-09-29T21:07:19.392Z,75.00
2017-09-29T21:09:47.645Z,75.00
2017-09-29T21:12:15.165Z,75.00
2017-09-29T21:14:42.665Z,74.80
2017-09-29T21:17:10.279Z,74.70
2017-09-29T21:19:38.551Z,74.80
2017-09-29T21:22:06.985Z,74.60
2017-09-29T21:24:34.482Z,74.60
2017-09-29T21:27:02.000Z,74.70
2017-09-29T21:29:30.289Z,75.00
2017-09-29T21:31:57.777Z,75.00
2017-09-29T21:34:25.337Z,75.00
2017-09-29T21:36:52.835Z,75.10
2017-09-29T21:39:20.352Z,75.10
2017-09-29T21:41:47.845Z,75.10
2017-09-29T21:44:15.517Z,74.80
2017-09-29T21:46:43.017Z,74.80
2017-09-29T21:49:10.613Z,74.70
2017-09-29T21:51:38.950Z,74.90
2017-09-29T21:54:06.434Z,74.90
2017-09-29T21:56:34.788Z,75.20
2017-09-29T21:59:03.142Z,75.30
2017-09-29T22:01:31.142Z,75.30
2017-09-29T22:03:58.649Z,75.40
2017-09-29T22:06:26.185Z,75.30
2017-09-29T22:08:53.889Z,75.20
2017-09-29T22:11:21.386Z,75.10
2017-09-29T22:13:49.012Z,75.00
2017-09-29T22:16:16.510Z,75.10
2017-09-29T22:18:44.002Z,75.10
2017-09-29T22:21:11.528Z,75.40
2017-09-29T22:23:39.017Z,75.50
2017-09-29T22:26:07.382Z,75.50
2017-09-29T22:28:34.882Z,75.40
2017-09-29T22:31:02.594Z,75.60
2017-09-29T22:33:30.136Z,75.60
2017-09-29T22:35:57.677Z,75.60
2017-09-29T22:38:25.248Z,75.80
2017-09-29T22:40:52.731Z,76.30
2017-09-29T22:43:21.033Z,76.60
2017-09-29T22:45:48.526Z,76.60
2017-09-29T22:48:16.063Z,76.70
2017-09-29T22:50:43.561Z,77.00
2017-09-29T22:53:11.117Z,77.30
2017-09-29T22:55:38.601Z,77.80
2017-09-29T22:58:06.961Z,77.70
2017-09-29T23:00:34.449Z,78.90
2017-09-29T23:03:02.138Z,78.60
2017-09-29T23:05:29.657Z,79.00
2017-09-29T23:07:57.144Z,79.30
2017-09-29T23:10:24.680Z,80.00
2017-09-29T23:12:52.164Z,80.60
2017-09-29T23:15:19.691Z,81.00
2017-09-29T23:17:47.958Z,81.90
2017-09-29T23:20:15.606Z,81.90
2017-09-29T23:22:43.185Z,82.30
2017-09-29T23:25:10.677Z,82.50
2017-09-29T23:27:39.567Z,83.50
2017-09-29T23:30:07.832Z,82.90
2017-09-29T23:32:35.357Z,82.90
2017-09-29T23:35:03.620Z,83.10
2017-09-29T23:37:31.914Z,83.00
2017-09-29T23:39:59.408Z,83.00
2017-09-29T23:42:26.936Z,82.50
2017-09-29T23:44:54.422Z,82.20
2017-09-29T23:47:23.097Z,81.80
2017-09-29T23:49:51.362Z,81.60
2017-09-29T23:52:18.861Z,81.60
2017-09-29T23:54:46.397Z,81.50
2017-09-29T23:57:13.893Z,81.40
2017-09-29T23:59:41.526Z,81.40
